sensor_id;sensor_type;location;lat;lon;timestamp;temperature;humidity
13322;DHT22;6730;46.248;6.930;2023-05-07T00:02:24;17.00;99.90
13322;DHT22;6730;46.248;6.930;2023-05-07T00:04:51;17.00;99.90
13322;DHT22;6730;46.248;6.930;2023-05-07T00:07:17;16.90;99.90
13322;DHT22;6730;46.248;6.930;2023-05-07T00:09:43;16.80;99.90
13322;DHT22;6730;46.248;6.930;2023-05-07T00:12:09;16.70;99.90
13322;DHT22;6730;46.248;6.930;2023-05-07T00:14:35;16.80;99.90
13322;DHT22;6730;46.248;6.930;2023-05-07T00:17:00;16.80;99.90
13322;DHT22;6730;46.248;6.930;2023-05-07T00:19:26;16.80;99.90
13322;DHT22;6730;46.248;6.930;2023-05-07T00:21:52;16.80;99.90
13322;DHT22;6730;46.248;6.930;2023-05-07T00:24:19;16.70;99.90
13322;DHT22;6730;46.248;6.930;2023-05-07T00:26:45;16.70;99.90
13322;DHT22;6730;46.248;6.930;2023-05-07T00:29:10;16.70;99.90
13322;DHT22;6730;46.248;6.930;2023-05-07T00:31:36;16.70;99.90
13322;DHT22;6730;46.248;6.930;2023-05-07T00:34:02;16.80;99.90
13322;DHT22;6730;46.248;6.930;2023-05-07T00:36:28;16.80;99.90
13322;DHT22;6730;46.248;6.930;2023-05-07T00:38:56;16.70;99.90
13322;DHT22;6730;46.248;6.930;2023-05-07T00:41:24;16.70;99.90
13322;DHT22;6730;46.248;6.930;2023-05-07T00:43:50;16.80;99.90
13322;DHT22;6730;46.248;6.930;2023-05-07T00:46:17;16.70;99.90
13322;DHT22;6730;46.248;6.930;2023-05-07T00:48:44;16.70;99.90
13322;DHT22;6730;46.248;6.930;2023-05-07T00:51:10;16.70;99.90
13322;DHT22;6730;46.248;6.930;2023-05-07T00:53:37;16.80;99.90
13322;DHT22;6730;46.248;6.930;2023-05-07T00:56:03;16.80;99.90
13322;DHT22;6730;46.248;6.930;2023-05-07T00:58:29;16.80;99.90
13322;DHT22;6730;46.248;6.930;2023-05-07T01:00:55;16.80;99.90
13322;DHT22;6730;46.248;6.930;2023-05-07T01:03:21;16.70;99.90
13322;DHT22;6730;46.248;6.930;2023-05-07T01:05:47;16.70;99.90
13322;DHT22;6730;46.248;6.930;2023-05-07T01:08:15;16.60;99.90
13322;DHT22;6730;46.248;6.930;2023-05-07T01:10:41;16.40;99.90
13322;DHT22;6730;46.248;6.930;2023-05-07T01:13:09;16.40;99.90
13322;DHT22;6730;46.248;6.930;2023-05-07T01:15:36;16.40;99.90
13322;DHT22;6730;46.248;6.930;2023-05-07T01:18:02;16.60;99.90
13322;DHT22;6730;46.248;6.930;2023-05-07T01:20:28;16.80;99.90
13322;DHT22;6730;46.248;6.930;2023-05-07T01:22:55;16.90;99.90
13322;DHT22;6730;46.248;6.930;2023-05-07T01:25:22;16.90;99.90
13322;DHT22;6730;46.248;6.930;2023-05-07T01:27:48;16.90;99.90
13322;DHT22;6730;46.248;6.930;2023-05-07T01:30:15;16.80;99.90
13322;DHT22;6730;46.248;6.930;2023-05-07T01:33:04;16.80;99.90
13322;DHT22;6730;46.248;6.930;2023-05-07T01:35:36;16.90;99.90
13322;DHT22;6730;46.248;6.930;2023-05-07T01:38:03;16.90;99.90
13322;DHT22;6730;46.248;6.930;2023-05-07T01:40:31;16.80;99.90
13322;DHT22;6730;46.248;6.930;2023-05-07T01:42:57;16.70;99.90
13322;DHT22;6730;46.248;6.930;2023-05-07T01:45:23;16.60;99.90
13322;DHT22;6730;46.248;6.930;2023-05-07T01:47:49;16.50;99.90
13322;DHT22;6730;46.248;6.930;2023-05-07T01:50:17;16.40;99.90
13322;DHT22;6730;46.248;6.930;2023-05-07T01:52:43;16.40;99.90
13322;DHT22;6730;46.248;6.930;2023-05-07T01:55:09;16.60;99.90
13322;DHT22;6730;46.248;6.930;2023-05-07T01:57:35;16.70;99.90
13322;DHT22;6730;46.248;6.930;2023-05-07T02:00:01;17.00;99.90
13322;DHT22;6730;46.248;6.930;2023-05-07T02:02:28;17.10;99.90
13322;DHT22;6730;46.248;6.930;2023-05-07T02:04:54;17.10;99.90
13322;DHT22;6730;46.248;6.930;2023-05-07T02:07:20;17.10;99.90
13322;DHT22;6730;46.248;6.930;2023-05-07T02:09:45;16.80;99.90
13322;DHT22;6730;46.248;6.930;2023-05-07T02:12:11;16.60;99.90
13322;DHT22;6730;46.248;6.930;2023-05-07T02:14:36;16.40;99.90
13322;DHT22;6730;46.248;6.930;2023-05-07T02:17:02;16.10;99.90
13322;DHT22;6730;46.248;6.930;2023-05-07T02:19:28;16.10;99.90
13322;DHT22;6730;46.248;6.930;2023-05-07T02:21:53;16.00;99.90
13322;DHT22;6730;46.248;6.930;2023-05-07T02:24:19;15.90;99.90
13322;DHT22;6730;46.248;6.930;2023-05-07T02:26:45;15.80;99.90
13322;DHT22;6730;46.248;6.930;2023-05-07T02:29:11;15.70;99.90
13322;DHT22;6730;46.248;6.930;2023-05-07T02:31:36;15.60;99.90
13322;DHT22;6730;46.248;6.930;2023-05-07T02:34:02;15.80;99.90
13322;DHT22;6730;46.248;6.930;2023-05-07T02:36:27;15.90;99.90
13322;DHT22;6730;46.248;6.930;2023-05-07T02:38:54;16.00;99.90
13322;DHT22;6730;46.248;6.930;2023-05-07T02:41:20;16.10;99.90
13322;DHT22;6730;46.248;6.930;2023-05-07T02:43:46;16.20;99.90
13322;DHT22;6730;46.248;6.930;2023-05-07T02:46:11;16.10;99.90
13322;DHT22;6730;46.248;6.930;2023-05-07T02:48:37;16.20;99.90
13322;DHT22;6730;46.248;6.930;2023-05-07T02:51:04;16.30;99.90
13322;DHT22;6730;46.248;6.930;2023-05-07T02:53:30;16.50;99.90
13322;DHT22;6730;46.248;6.930;2023-05-07T02:55:57;16.40;99.90
13322;DHT22;6730;46.248;6.930;2023-05-07T02:58:23;16.40;99.90
13322;DHT22;6730;46.248;6.930;2023-05-07T03:00:49;16.30;99.90
13322;DHT22;6730;46.248;6.930;2023-05-07T03:03:15;16.30;99.90
13322;DHT22;6730;46.248;6.930;2023-05-07T03:05:41;16.30;99.90
13322;DHT22;6730;46.248;6.930;2023-05-07T03:08:07;16.30;99.90
13322;DHT22;6730;46.248;6.930;2023-05-07T03:10:33;16.20;99.90
13322;DHT22;6730;46.248;6.930;2023-05-07T03:12:59;16.30;99.90
13322;DHT22;6730;46.248;6.930;2023-05-07T03:15:25;16.20;99.90
13322;DHT22;6730;46.248;6.930;2023-05-07T03:17:51;16.00;99.90
13322;DHT22;6730;46.248;6.930;2023-05-07T03:20:16;15.90;99.90
13322;DHT22;6730;46.248;6.930;2023-05-07T03:22:42;15.80;99.90
13322;DHT22;6730;46.248;6.930;2023-05-07T03:25:08;15.70;99.90
13322;DHT22;6730;46.248;6.930;2023-05-07T03:27:34;15.80;99.90
13322;DHT22;6730;46.248;6.930;2023-05-07T03:30:00;15.80;99.90
13322;DHT22;6730;46.248;6.930;2023-05-07T03:32:26;15.80;99.90
13322;DHT22;6730;46.248;6.930;2023-05-07T03:34:52;15.80;99.90
13322;DHT22;6730;46.248;6.930;2023-05-07T03:37:18;15.80;99.90
13322;DHT22;6730;46.248;6.930;2023-05-07T03:39:44;15.90;99.90
13322;DHT22;6730;46.248;6.930;2023-05-07T03:42:10;16.00;99.90
13322;DHT22;6730;46.248;6.930;2023-05-07T03:44:36;16.00;99.90
13322;DHT22;6730;46.248;6.930;2023-05-07T03:47:02;15.80;99.90
13322;DHT22;6730;46.248;6.930;2023-05-07T03:49:28;15.80;99.90
13322;DHT22;6730;46.248;6.930;2023-05-07T03:51:53;15.90;99.90
13322;DHT22;6730;46.248;6.930;2023-05-07T03:54:19;15.60;99.90
13322;DHT22;6730;46.248;6.930;2023-05-07T03:56:45;15.70;99.90
13322;DHT22;6730;46.248;6.930;2023-05-07T03:59:12;15.90;99.90
13322;DHT22;6730;46.248;6.930;2023-05-07T04:01:38;16.10;99.90
13322;DHT22;6730;46.248;6.930;2023-05-07T04:04:05;16.20;99.90
13322;DHT22;6730;46.248;6.930;2023-05-07T04:06:31;16.00;99.90
13322;DHT22;6730;46.248;6.930;2023-05-07T04:08:57;15.80;99.90
13322;DHT22;6730;46.248;6.930;2023-05-07T04:11:22;15.90;99.90
13322;DHT22;6730;46.248;6.930;2023-05-07T04:13:48;15.90;99.90
13322;DHT22;6730;46.248;6.930;2023-05-07T04:16:14;15.70;99.90
13322;DHT22;6730;46.248;6.930;2023-05-07T04:18:41;15.70;99.90
13322;DHT22;6730;46.248;6.930;2023-05-07T04:21:15;15.80;99.90
13322;DHT22;6730;46.248;6.930;2023-05-07T04:23:41;15.90;99.90
13322;DHT22;6730;46.248;6.930;2023-05-07T04:26:06;16.10;99.90
13322;DHT22;6730;46.248;6.930;2023-05-07T04:28:32;16.20;99.90
13322;DHT22;6730;46.248;6.930;2023-05-07T04:31:01;16.30;99.90
13322;DHT22;6730;46.248;6.930;2023-05-07T04:33:26;16.40;99.90
13322;DHT22;6730;46.248;6.930;2023-05-07T04:35:52;16.30;99.90
13322;DHT22;6730;46.248;6.930;2023-05-07T04:38:18;16.40;99.90
13322;DHT22;6730;46.248;6.930;2023-05-07T04:40:44;16.50;99.90
13322;DHT22;6730;46.248;6.930;2023-05-07T04:43:09;16.40;99.90
13322;DHT22;6730;46.248;6.930;2023-05-07T04:45:36;16.40;99.90
13322;DHT22;6730;46.248;6.930;2023-05-07T04:48:02;16.40;99.90
13322;DHT22;6730;46.248;6.930;2023-05-07T04:50:28;16.20;99.90
13322;DHT22;6730;46.248;6.930;2023-05-07T04:52:54;16.00;99.90
13322;DHT22;6730;46.248;6.930;2023-05-07T04:55:19;15.80;99.90
13322;DHT22;6730;46.248;6.930;2023-05-07T04:57:45;15.60;99.90
13322;DHT22;6730;46.248;6.930;2023-05-07T05:00:11;15.70;99.90
13322;DHT22;6730;46.248;6.930;2023-05-07T05:02:40;15.80;99.90
13322;DHT22;6730;46.248;6.930;2023-05-07T05:05:06;15.60;99.90
13322;DHT22;6730;46.248;6.930;2023-05-07T05:07:32;15.30;99.90
13322;DHT22;6730;46.248;6.930;2023-05-07T05:09:58;15.00;99.90
13322;DHT22;6730;46.248;6.930;2023-05-07T05:12:24;14.80;99.90
13322;DHT22;6730;46.248;6.930;2023-05-07T05:14:50;14.80;99.90
13322;DHT22;6730;46.248;6.930;2023-05-07T05:17:15;15.00;99.90
13322;DHT22;6730;46.248;6.930;2023-05-07T05:19:41;15.00;99.90
13322;DHT22;6730;46.248;6.930;2023-05-07T05:22:07;15.00;99.90
13322;DHT22;6730;46.248;6.930;2023-05-07T05:24:32;15.10;99.90
13322;DHT22;6730;46.248;6.930;2023-05-07T05:26:58;14.90;99.90
13322;DHT22;6730;46.248;6.930;2023-05-07T05:29:26;14.60;99.90
13322;DHT22;6730;46.248;6.930;2023-05-07T05:31:52;14.90;99.90
13322;DHT22;6730;46.248;6.930;2023-05-07T05:34:17;15.20;99.90
13322;DHT22;6730;46.248;6.930;2023-05-07T05:36:45;15.20;99.90
13322;DHT22;6730;46.248;6.930;2023-05-07T05:39:11;15.40;99.90
13322;DHT22;6730;46.248;6.930;2023-05-07T05:41:36;15.50;99.90
13322;DHT22;6730;46.248;6.930;2023-05-07T05:44:02;15.60;99.90
13322;DHT22;6730;46.248;6.930;2023-05-07T05:46:28;15.60;99.90
13322;DHT22;6730;46.248;6.930;2023-05-07T05:48:53;15.80;99.90
13322;DHT22;6730;46.248;6.930;2023-05-07T05:51:20;15.90;99.90
13322;DHT22;6730;46.248;6.930;2023-05-07T05:53:46;16.10;99.90
13322;DHT22;6730;46.248;6.930;2023-05-07T05:56:11;16.20;99.90
13322;DHT22;6730;46.248;6.930;2023-05-07T05:58:37;16.00;99.90
13322;DHT22;6730;46.248;6.930;2023-05-07T06:01:03;15.90;99.90
13322;DHT22;6730;46.248;6.930;2023-05-07T06:03:29;16.00;99.90
13322;DHT22;6730;46.248;6.930;2023-05-07T06:05:54;16.20;99.90
13322;DHT22;6730;46.248;6.930;2023-05-07T06:08:20;16.20;99.90
13322;DHT22;6730;46.248;6.930;2023-05-07T06:10:46;15.60;99.90
13322;DHT22;6730;46.248;6.930;2023-05-07T06:13:11;15.20;99.90
13322;DHT22;6730;46.248;6.930;2023-05-07T06:15:37;15.10;99.90
13322;DHT22;6730;46.248;6.930;2023-05-07T06:18:03;14.90;99.90
13322;DHT22;6730;46.248;6.930;2023-05-07T06:20:28;15.10;99.90
13322;DHT22;6730;46.248;6.930;2023-05-07T06:22:54;14.90;99.90
13322;DHT22;6730;46.248;6.930;2023-05-07T06:25:19;14.80;99.90
13322;DHT22;6730;46.248;6.930;2023-05-07T06:27:45;15.00;99.90
13322;DHT22;6730;46.248;6.930;2023-05-07T06:30:11;15.40;99.90
13322;DHT22;6730;46.248;6.930;2023-05-07T06:32:38;15.90;99.90
13322;DHT22;6730;46.248;6.930;2023-05-07T06:35:03;16.30;99.90
13322;DHT22;6730;46.248;6.930;2023-05-07T06:37:29;16.40;99.90
13322;DHT22;6730;46.248;6.930;2023-05-07T06:39:55;16.30;99.90
13322;DHT22;6730;46.248;6.930;2023-05-07T06:42:20;16.40;99.90
13322;DHT22;6730;46.248;6.930;2023-05-07T06:44:46;15.60;99.90
13322;DHT22;6730;46.248;6.930;2023-05-07T06:47:12;15.20;99.90
13322;DHT22;6730;46.248;6.930;2023-05-07T06:49:37;15.30;99.90
13322;DHT22;6730;46.248;6.930;2023-05-07T06:52:03;15.50;99.90
13322;DHT22;6730;46.248;6.930;2023-05-07T06:54:29;15.60;99.90
13322;DHT22;6730;46.248;6.930;2023-05-07T06:56:54;15.80;99.90
13322;DHT22;6730;46.248;6.930;2023-05-07T06:59:20;16.30;99.90
13322;DHT22;6730;46.248;6.930;2023-05-07T07:01:46;16.70;99.90
13322;DHT22;6730;46.248;6.930;2023-05-07T07:04:11;16.80;99.90
13322;DHT22;6730;46.248;6.930;2023-05-07T07:06:37;16.60;99.90
13322;DHT22;6730;46.248;6.930;2023-05-07T07:09:03;16.70;99.90
13322;DHT22;6730;46.248;6.930;2023-05-07T07:11:28;16.90;99.90
13322;DHT22;6730;46.248;6.930;2023-05-07T07:13:54;17.30;99.90
13322;DHT22;6730;46.248;6.930;2023-05-07T07:16:21;17.30;99.90
13322;DHT22;6730;46.248;6.930;2023-05-07T07:18:46;17.50;99.90
13322;DHT22;6730;46.248;6.930;2023-05-07T07:21:12;17.80;99.90
13322;DHT22;6730;46.248;6.930;2023-05-07T07:23:38;18.00;99.90
13322;DHT22;6730;46.248;6.930;2023-05-07T07:26:03;18.20;99.90
13322;DHT22;6730;46.248;6.930;2023-05-07T07:28:29;17.70;99.90
13322;DHT22;6730;46.248;6.930;2023-05-07T07:30:55;17.60;99.90
13322;DHT22;6730;46.248;6.930;2023-05-07T07:33:20;17.60;99.90
13322;DHT22;6730;46.248;6.930;2023-05-07T07:35:46;17.50;99.90
13322;DHT22;6730;46.248;6.930;2023-05-07T07:38:11;17.80;99.90
13322;DHT22;6730;46.248;6.930;2023-05-07T07:40:38;18.10;99.90
13322;DHT22;6730;46.248;6.930;2023-05-07T07:43:04;17.60;99.90
13322;DHT22;6730;46.248;6.930;2023-05-07T07:45:31;17.30;99.90
13322;DHT22;6730;46.248;6.930;2023-05-07T07:47:57;17.50;99.90
13322;DHT22;6730;46.248;6.930;2023-05-07T07:50:22;17.70;99.90
13322;DHT22;6730;46.248;6.930;2023-05-07T07:52:48;17.30;99.90
13322;DHT22;6730;46.248;6.930;2023-05-07T07:55:14;17.10;99.90
13322;DHT22;6730;46.248;6.930;2023-05-07T07:57:43;17.50;99.90
13322;DHT22;6730;46.248;6.930;2023-05-07T08:00:09;17.60;99.90
13322;DHT22;6730;46.248;6.930;2023-05-07T08:02:35;17.50;99.90
13322;DHT22;6730;46.248;6.930;2023-05-07T08:05:00;17.00;99.90
13322;DHT22;6730;46.248;6.930;2023-05-07T08:07:26;16.60;99.90
13322;DHT22;6730;46.248;6.930;2023-05-07T08:09:52;16.50;99.90
13322;DHT22;6730;46.248;6.930;2023-05-07T08:12:18;16.40;99.90
13322;DHT22;6730;46.248;6.930;2023-05-07T08:14:43;16.10;99.90
13322;DHT22;6730;46.248;6.930;2023-05-07T08:17:09;15.80;99.90
13322;DHT22;6730;46.248;6.930;2023-05-07T08:19:35;15.50;99.90
13322;DHT22;6730;46.248;6.930;2023-05-07T08:22:02;15.40;99.90
13322;DHT22;6730;46.248;6.930;2023-05-07T08:24:28;15.80;99.90
13322;DHT22;6730;46.248;6.930;2023-05-07T08:26:54;16.50;99.90
13322;DHT22;6730;46.248;6.930;2023-05-07T08:29:19;17.20;99.90
13322;DHT22;6730;46.248;6.930;2023-05-07T08:31:45;17.60;99.90
13322;DHT22;6730;46.248;6.930;2023-05-07T08:34:11;16.90;99.90
13322;DHT22;6730;46.248;6.930;2023-05-07T08:36:36;16.40;99.90
13322;DHT22;6730;46.248;6.930;2023-05-07T08:39:02;16.50;99.90
13322;DHT22;6730;46.248;6.930;2023-05-07T08:41:28;16.60;99.90
13322;DHT22;6730;46.248;6.930;2023-05-07T08:43:58;16.90;99.90
13322;DHT22;6730;46.248;6.930;2023-05-07T08:46:25;17.40;99.90
13322;DHT22;6730;46.248;6.930;2023-05-07T08:48:55;17.70;99.90
13322;DHT22;6730;46.248;6.930;2023-05-07T08:51:21;18.00;99.90
13322;DHT22;6730;46.248;6.930;2023-05-07T08:53:48;17.50;99.90
13322;DHT22;6730;46.248;6.930;2023-05-07T08:56:15;17.30;99.90
13322;DHT22;6730;46.248;6.930;2023-05-07T08:58:42;17.20;99.90
13322;DHT22;6730;46.248;6.930;2023-05-07T09:01:10;17.60;99.90
13322;DHT22;6730;46.248;6.930;2023-05-07T09:03:38;17.60;99.90
13322;DHT22;6730;46.248;6.930;2023-05-07T09:06:04;17.70;99.90
13322;DHT22;6730;46.248;6.930;2023-05-07T09:08:32;17.80;99.90
13322;DHT22;6730;46.248;6.930;2023-05-07T09:10:58;17.60;99.90
13322;DHT22;6730;46.248;6.930;2023-05-07T09:13:23;18.00;99.90
13322;DHT22;6730;46.248;6.930;2023-05-07T09:15:50;18.10;99.90
13322;DHT22;6730;46.248;6.930;2023-05-07T09:18:15;18.50;99.90
13322;DHT22;6730;46.248;6.930;2023-05-07T09:20:41;18.50;99.90
13322;DHT22;6730;46.248;6.930;2023-05-07T09:23:07;18.60;99.90
13322;DHT22;6730;46.248;6.930;2023-05-07T09:25:35;18.40;99.90
13322;DHT22;6730;46.248;6.930;2023-05-07T09:28:01;18.60;99.90
13322;DHT22;6730;46.248;6.930;2023-05-07T09:30:31;19.10;99.90
13322;DHT22;6730;46.248;6.930;2023-05-07T09:33:03;18.90;99.90
13322;DHT22;6730;46.248;6.930;2023-05-07T09:35:30;18.80;99.90
13322;DHT22;6730;46.248;6.930;2023-05-07T09:38:00;19.30;99.90
13322;DHT22;6730;46.248;6.930;2023-05-07T09:40:29;19.40;99.90
13322;DHT22;6730;46.248;6.930;2023-05-07T09:42:55;19.60;99.90
13322;DHT22;6730;46.248;6.930;2023-05-07T09:45:25;20.10;99.90
13322;DHT22;6730;46.248;6.930;2023-05-07T09:47:54;19.80;99.90
13322;DHT22;6730;46.248;6.930;2023-05-07T09:50:24;19.60;99.90
13322;DHT22;6730;46.248;6.930;2023-05-07T09:52:51;20.30;99.90
13322;DHT22;6730;46.248;6.930;2023-05-07T09:55:17;20.30;99.90
13322;DHT22;6730;46.248;6.930;2023-05-07T09:57:44;19.50;99.90
13322;DHT22;6730;46.248;6.930;2023-05-07T10:00:11;19.90;99.90
13322;DHT22;6730;46.248;6.930;2023-05-07T10:02:39;20.30;99.90
13322;DHT22;6730;46.248;6.930;2023-05-07T10:05:12;20.60;99.90
13322;DHT22;6730;46.248;6.930;2023-05-07T10:07:39;21.40;99.90
13322;DHT22;6730;46.248;6.930;2023-05-07T10:10:06;21.40;99.90
13322;DHT22;6730;46.248;6.930;2023-05-07T10:12:32;20.80;99.90
13322;DHT22;6730;46.248;6.930;2023-05-07T10:15:09;19.80;99.90
13322;DHT22;6730;46.248;6.930;2023-05-07T10:17:37;19.90;99.90
13322;DHT22;6730;46.248;6.930;2023-05-07T10:20:04;19.60;99.90
13322;DHT22;6730;46.248;6.930;2023-05-07T10:22:37;19.20;99.90
13322;DHT22;6730;46.248;6.930;2023-05-07T10:25:16;19.00;99.90
13322;DHT22;6730;46.248;6.930;2023-05-07T10:27:43;19.20;99.90
13322;DHT22;6730;46.248;6.930;2023-05-07T10:32:56;19.30;99.90
13322;DHT22;6730;46.248;6.930;2023-05-07T10:35:32;18.90;99.90
13322;DHT22;6730;46.248;6.930;2023-05-07T10:38:02;18.70;99.90
13322;DHT22;6730;46.248;6.930;2023-05-07T10:40:28;18.50;99.90
13322;DHT22;6730;46.248;6.930;2023-05-07T10:42:55;18.30;99.90
13322;DHT22;6730;46.248;6.930;2023-05-07T10:45:21;18.30;99.90
13322;DHT22;6730;46.248;6.930;2023-05-07T10:50:45;18.10;99.90
13322;DHT22;6730;46.248;6.930;2023-05-07T10:55:48;18.60;99.90
13322;DHT22;6730;46.248;6.930;2023-05-07T10:58:27;18.90;99.90
13322;DHT22;6730;46.248;6.930;2023-05-07T11:00:57;18.90;99.90
13322;DHT22;6730;46.248;6.930;2023-05-07T11:03:24;18.60;99.90
13322;DHT22;6730;46.248;6.930;2023-05-07T11:11:19;18.40;99.90
13322;DHT22;6730;46.248;6.930;2023-05-07T11:13:47;18.30;99.90
13322;DHT22;6730;46.248;6.930;2023-05-07T11:16:32;18.40;99.90
13322;DHT22;6730;46.248;6.930;2023-05-07T11:18:58;18.90;99.90
13322;DHT22;6730;46.248;6.930;2023-05-07T11:21:41;19.40;99.90
13322;DHT22;6730;46.248;6.930;2023-05-07T11:24:08;19.70;99.90
13322;DHT22;6730;46.248;6.930;2023-05-07T11:29:14;19.50;99.90
13322;DHT22;6730;46.248;6.930;2023-05-07T11:31:40;19.40;99.90
13322;DHT22;6730;46.248;6.930;2023-05-07T11:34:06;19.50;99.90
13322;DHT22;6730;46.248;6.930;2023-05-07T11:36:33;19.40;99.90
13322;DHT22;6730;46.248;6.930;2023-05-07T11:38:59;19.50;99.90
13322;DHT22;6730;46.248;6.930;2023-05-07T11:41:35;19.60;99.90
13322;DHT22;6730;46.248;6.930;2023-05-07T11:44:02;19.40;99.90
13322;DHT22;6730;46.248;6.930;2023-05-07T11:46:28;19.20;99.90
13322;DHT22;6730;46.248;6.930;2023-05-07T11:48:55;18.90;99.90
13322;DHT22;6730;46.248;6.930;2023-05-07T11:51:23;18.90;99.90
13322;DHT22;6730;46.248;6.930;2023-05-07T11:53:49;19.10;99.90
13322;DHT22;6730;46.248;6.930;2023-05-07T11:56:17;19.10;99.90
13322;DHT22;6730;46.248;6.930;2023-05-07T11:58:44;19.10;99.90
13322;DHT22;6730;46.248;6.930;2023-05-07T12:01:11;19.10;99.90
13322;DHT22;6730;46.248;6.930;2023-05-07T12:03:40;18.90;99.90
13322;DHT22;6730;46.248;6.930;2023-05-07T12:06:08;18.70;99.90
13322;DHT22;6730;46.248;6.930;2023-05-07T12:08:37;18.60;99.90
13322;DHT22;6730;46.248;6.930;2023-05-07T12:11:07;18.60;99.90
13322;DHT22;6730;46.248;6.930;2023-05-07T12:13:33;18.60;99.90
13322;DHT22;6730;46.248;6.930;2023-05-07T12:15:59;18.80;99.90
13322;DHT22;6730;46.248;6.930;2023-05-07T12:18:25;18.60;99.90
13322;DHT22;6730;46.248;6.930;2023-05-07T12:20:51;18.10;99.90
13322;DHT22;6730;46.248;6.930;2023-05-07T12:23:17;18.30;99.90
13322;DHT22;6730;46.248;6.930;2023-05-07T12:25:43;18.50;99.90
13322;DHT22;6730;46.248;6.930;2023-05-07T12:28:16;18.40;99.90
13322;DHT22;6730;46.248;6.930;2023-05-07T12:30:43;18.00;99.90
13322;DHT22;6730;46.248;6.930;2023-05-07T12:33:09;17.80;99.90
13322;DHT22;6730;46.248;6.930;2023-05-07T12:35:40;17.30;99.90
13322;DHT22;6730;46.248;6.930;2023-05-07T12:38:11;17.00;99.90
13322;DHT22;6730;46.248;6.930;2023-05-07T12:40:42;16.70;99.90
13322;DHT22;6730;46.248;6.930;2023-05-07T12:43:23;16.30;99.90
13322;DHT22;6730;46.248;6.930;2023-05-07T12:45:50;16.00;99.90
13322;DHT22;6730;46.248;6.930;2023-05-07T12:48:16;15.60;99.90
13322;DHT22;6730;46.248;6.930;2023-05-07T12:50:42;15.50;99.90
13322;DHT22;6730;46.248;6.930;2023-05-07T12:53:11;15.40;99.90
13322;DHT22;6730;46.248;6.930;2023-05-07T12:55:45;15.50;99.90
13322;DHT22;6730;46.248;6.930;2023-05-07T12:58:28;15.50;99.90
13322;DHT22;6730;46.248;6.930;2023-05-07T13:00:55;15.90;99.90
13322;DHT22;6730;46.248;6.930;2023-05-07T13:03:30;16.20;99.90
13322;DHT22;6730;46.248;6.930;2023-05-07T13:05:59;16.70;99.90
13322;DHT22;6730;46.248;6.930;2023-05-07T13:08:36;17.20;99.90
13322;DHT22;6730;46.248;6.930;2023-05-07T13:11:04;17.20;99.90
13322;DHT22;6730;46.248;6.930;2023-05-07T13:13:35;17.20;99.90
13322;DHT22;6730;46.248;6.930;2023-05-07T13:16:02;17.40;99.90
13322;DHT22;6730;46.248;6.930;2023-05-07T13:18:29;17.60;99.90
13322;DHT22;6730;46.248;6.930;2023-05-07T13:20:56;18.10;99.90
13322;DHT22;6730;46.248;6.930;2023-05-07T13:23:21;18.20;99.90
13322;DHT22;6730;46.248;6.930;2023-05-07T13:25:48;18.30;99.90
13322;DHT22;6730;46.248;6.930;2023-05-07T13:28:14;17.70;99.90
13322;DHT22;6730;46.248;6.930;2023-05-07T13:30:40;17.60;99.90
13322;DHT22;6730;46.248;6.930;2023-05-07T13:33:06;17.90;99.90
13322;DHT22;6730;46.248;6.930;2023-05-07T13:35:32;18.20;99.90
13322;DHT22;6730;46.248;6.930;2023-05-07T13:37:58;18.50;99.90
13322;DHT22;6730;46.248;6.930;2023-05-07T13:40:24;18.60;99.90
13322;DHT22;6730;46.248;6.930;2023-05-07T13:42:50;18.80;99.90
13322;DHT22;6730;46.248;6.930;2023-05-07T13:45:19;18.60;99.90
13322;DHT22;6730;46.248;6.930;2023-05-07T13:47:46;17.20;99.90
13322;DHT22;6730;46.248;6.930;2023-05-07T13:50:12;16.40;99.90
13322;DHT22;6730;46.248;6.930;2023-05-07T13:52:40;16.20;99.90
13322;DHT22;6730;46.248;6.930;2023-05-07T13:55:06;16.60;99.90
13322;DHT22;6730;46.248;6.930;2023-05-07T13:57:32;17.00;99.90
13322;DHT22;6730;46.248;6.930;2023-05-07T13:59:58;17.30;99.90
13322;DHT22;6730;46.248;6.930;2023-05-07T14:02:23;17.40;99.90
13322;DHT22;6730;46.248;6.930;2023-05-07T14:04:49;17.40;99.90
13322;DHT22;6730;46.248;6.930;2023-05-07T14:07:18;17.30;99.90
13322;DHT22;6730;46.248;6.930;2023-05-07T14:09:43;17.30;99.90
13322;DHT22;6730;46.248;6.930;2023-05-07T14:12:10;17.20;99.90
13322;DHT22;6730;46.248;6.930;2023-05-07T14:14:36;17.30;99.90
13322;DHT22;6730;46.248;6.930;2023-05-07T14:17:01;17.20;99.90
13322;DHT22;6730;46.248;6.930;2023-05-07T14:19:27;17.20;99.90
13322;DHT22;6730;46.248;6.930;2023-05-07T14:21:53;17.30;99.90
13322;DHT22;6730;46.248;6.930;2023-05-07T14:24:18;17.20;99.90
13322;DHT22;6730;46.248;6.930;2023-05-07T14:26:44;16.40;99.90
13322;DHT22;6730;46.248;6.930;2023-05-07T14:29:10;15.50;99.90
13322;DHT22;6730;46.248;6.930;2023-05-07T14:31:36;15.40;99.90
13322;DHT22;6730;46.248;6.930;2023-05-07T14:34:01;15.80;99.90
13322;DHT22;6730;46.248;6.930;2023-05-07T14:36:27;15.70;99.90
13322;DHT22;6730;46.248;6.930;2023-05-07T14:38:55;15.10;99.90
13322;DHT22;6730;46.248;6.930;2023-05-07T14:41:22;14.50;99.90
13322;DHT22;6730;46.248;6.930;2023-05-07T14:43:48;14.50;99.90
13322;DHT22;6730;46.248;6.930;2023-05-07T14:46:17;14.70;99.90
13322;DHT22;6730;46.248;6.930;2023-05-07T14:48:44;15.10;99.90
13322;DHT22;6730;46.248;6.930;2023-05-07T14:51:10;15.50;99.90
13322;DHT22;6730;46.248;6.930;2023-05-07T14:53:36;15.10;99.90
13322;DHT22;6730;46.248;6.930;2023-05-07T14:56:02;14.70;99.90
13322;DHT22;6730;46.248;6.930;2023-05-07T14:58:28;14.70;99.90
13322;DHT22;6730;46.248;6.930;2023-05-07T15:00:54;14.90;99.90
13322;DHT22;6730;46.248;6.930;2023-05-07T15:03:20;15.00;99.90
13322;DHT22;6730;46.248;6.930;2023-05-07T15:05:47;14.70;99.90
13322;DHT22;6730;46.248;6.930;2023-05-07T15:08:12;14.40;99.90
13322;DHT22;6730;46.248;6.930;2023-05-07T15:10:38;14.10;99.90
13322;DHT22;6730;46.248;6.930;2023-05-07T15:13:10;13.90;99.90
13322;DHT22;6730;46.248;6.930;2023-05-07T15:15:36;13.80;99.90
13322;DHT22;6730;46.248;6.930;2023-05-07T15:18:03;13.80;99.90
13322;DHT22;6730;46.248;6.930;2023-05-07T15:20:29;13.80;99.90
13322;DHT22;6730;46.248;6.930;2023-05-07T15:22:55;13.80;99.90
13322;DHT22;6730;46.248;6.930;2023-05-07T15:25:22;13.90;99.90
13322;DHT22;6730;46.248;6.930;2023-05-07T15:27:47;14.00;99.90
13322;DHT22;6730;46.248;6.930;2023-05-07T15:30:13;14.20;99.90
13322;DHT22;6730;46.248;6.930;2023-05-07T15:32:40;14.10;99.90
13322;DHT22;6730;46.248;6.930;2023-05-07T15:35:06;14.00;99.90
13322;DHT22;6730;46.248;6.930;2023-05-07T15:37:33;14.00;99.90
13322;DHT22;6730;46.248;6.930;2023-05-07T15:39:59;14.00;99.90
13322;DHT22;6730;46.248;6.930;2023-05-07T15:42:27;14.00;99.90
13322;DHT22;6730;46.248;6.930;2023-05-07T15:44:53;14.30;99.90
13322;DHT22;6730;46.248;6.930;2023-05-07T15:47:19;14.50;99.90
13322;DHT22;6730;46.248;6.930;2023-05-07T15:49:44;14.80;99.90
13322;DHT22;6730;46.248;6.930;2023-05-07T15:52:10;14.90;99.90
13322;DHT22;6730;46.248;6.930;2023-05-07T15:54:36;14.80;99.90
13322;DHT22;6730;46.248;6.930;2023-05-07T15:57:03;14.70;99.90
13322;DHT22;6730;46.248;6.930;2023-05-07T15:59:29;14.90;99.90